createdAt,value
2023-01-04T00:01:18.552Z,101444.31
2023-01-04T00:03:45.784Z,101433.38
2023-01-04T00:06:14.577Z,101436.69
2023-01-04T00:08:41.737Z,101440.50
2023-01-04T00:11:21.431Z,101446.50
2023-01-04T00:13:50.773Z,101450.16
2023-01-04T00:16:22.652Z,101449.25
2023-01-04T00:18:50.608Z,101451.00
2023-01-04T00:21:19.933Z,101450.06
2023-01-04T00:23:48.933Z,101448.59
2023-01-04T00:26:22.414Z,101448.22
2023-01-04T00:28:54.719Z,101443.38
2023-01-04T00:31:22.993Z,101453.03
2023-01-04T00:33:50.465Z,101452.28
2023-01-04T00:36:17.132Z,101453.91
2023-01-04T00:38:43.849Z,101452.09
2023-01-04T00:41:28.346Z,101440.59
2023-01-04T00:43:59.054Z,101452.66
2023-01-04T00:46:25.714Z,101448.50
2023-01-04T00:48:56.759Z,101449.59
2023-01-04T00:51:28.196Z,101453.25
2023-01-04T00:53:54.827Z,101453.47
2023-01-04T00:56:21.424Z,101457.44
2023-01-04T00:58:48.041Z,101452.88
2023-01-04T01:01:14.813Z,101463.22
2023-01-04T01:03:41.705Z,101467.63
2023-01-04T01:06:08.698Z,101470.31
2023-01-04T01:08:36.012Z,101460.56
2023-01-04T01:11:08.580Z,101462.34
2023-01-04T01:13:36.442Z,101465.34
2023-01-04T01:16:08.458Z,101465.31
2023-01-04T01:18:36.537Z,101458.91
2023-01-04T01:21:07.218Z,101458.63
2023-01-04T01:23:33.847Z,101465.72
2023-01-04T01:26:01.717Z,101459.94
2023-01-04T01:28:29.508Z,101458.13
2023-01-04T01:30:56.687Z,101470.63
2023-01-04T01:33:23.293Z,101467.31
2023-01-04T01:35:49.879Z,101478.66
2023-01-04T01:38:16.471Z,101467.88
2023-01-04T01:40:44.284Z,101470.44
2023-01-04T01:43:22.655Z,101473.16
2023-01-04T01:45:56.414Z,101468.31
2023-01-04T01:48:27.690Z,101462.16
2023-01-04T01:50:59.569Z,101469.00
2023-01-04T01:53:29.697Z,101471.72
2023-01-04T01:55:57.912Z,101464.09
2023-01-04T01:58:31.655Z,101463.78
2023-01-04T02:00:58.738Z,101464.78
2023-01-04T02:03:32.486Z,101461.41
2023-01-04T02:06:02.655Z,101467.19
2023-01-04T02:08:30.468Z,101468.06
2023-01-04T02:10:57.180Z,101472.00
2023-01-04T02:13:27.728Z,101467.25
2023-01-04T02:16:10.367Z,101471.91
2023-01-04T02:18:51.930Z,101466.63
2023-01-04T02:21:44.665Z,101473.56
2023-01-04T02:24:34.302Z,101463.19
2023-01-04T02:27:19.407Z,101467.38
2023-01-04T02:30:05.903Z,101471.06
2023-01-04T02:32:55.262Z,101471.78
2023-01-04T02:35:31.455Z,101459.44
2023-01-04T02:37:58.071Z,101466.56
2023-01-04T02:41:06.651Z,101467.78
2023-01-04T02:43:39.047Z,101476.38
2023-01-04T02:46:14.751Z,101466.50
2023-01-04T02:48:41.431Z,101468.84
2023-01-04T02:51:33.018Z,101469.75
2023-01-04T02:54:08.025Z,101464.38
2023-01-04T02:56:43.557Z,101458.63
2023-01-04T02:59:47.743Z,101462.78
2023-01-04T03:02:35.980Z,101464.66
2023-01-04T03:05:20.532Z,101463.97
2023-01-04T03:08:10.502Z,101463.00
2023-01-04T03:10:47.547Z,101464.75
2023-01-04T03:13:20.262Z,101460.44
2023-01-04T03:15:58.051Z,101460.94
2023-01-04T03:18:28.420Z,101463.31
2023-01-04T03:20:58.103Z,101458.03
2023-01-04T03:23:29.289Z,101462.03
2023-01-04T03:26:11.759Z,101464.34
2023-01-04T03:28:39.844Z,101467.44
2023-01-04T03:31:17.646Z,101463.72
2023-01-04T03:33:44.547Z,101461.00
2023-01-04T03:36:45.098Z,101470.03
2023-01-04T03:39:26.541Z,101467.31
2023-01-04T03:42:07.268Z,101463.56
2023-01-04T03:45:09.991Z,101463.66
2023-01-04T03:47:46.444Z,101468.50
2023-01-04T03:50:19.167Z,101465.13
2023-01-04T03:52:48.088Z,101469.16
2023-01-04T03:55:16.752Z,101465.91
2023-01-04T03:57:45.052Z,101463.19
2023-01-04T04:00:15.604Z,101469.72
2023-01-04T04:02:44.562Z,101463.53
2023-01-04T04:05:18.008Z,101462.69
2023-01-04T04:07:44.755Z,101462.44
2023-01-04T04:10:11.348Z,101457.72
2023-01-04T04:12:37.958Z,101466.03
2023-01-04T04:15:05.307Z,101467.59
2023-01-04T04:17:31.915Z,101463.41
2023-01-04T04:19:58.558Z,101467.63
2023-01-04T04:22:25.169Z,101476.41
2023-01-04T04:24:51.771Z,101471.25
2023-01-04T04:27:18.419Z,101475.09
2023-01-04T04:29:45.006Z,101475.22
2023-01-04T04:32:11.658Z,101476.84
2023-01-04T04:34:38.268Z,101477.94
2023-01-04T04:37:04.890Z,101475.44
2023-01-04T04:39:31.490Z,101486.63
2023-01-04T04:41:58.232Z,101480.94
2023-01-04T04:44:24.920Z,101483.69
2023-01-04T04:46:51.559Z,101487.75
2023-01-04T04:49:18.626Z,101486.66
2023-01-04T04:51:45.775Z,101485.75
2023-01-04T04:54:17.397Z,101481.72
2023-01-04T04:56:43.998Z,101483.75
2023-01-04T04:59:10.920Z,101484.81
2023-01-04T05:01:37.814Z,101481.13
2023-01-04T05:04:04.856Z,101483.97
2023-01-04T05:06:32.087Z,101482.06
2023-01-04T05:08:58.706Z,101486.38
2023-01-04T05:11:25.501Z,101488.63
2023-01-04T05:13:52.120Z,101487.53
2023-01-04T05:16:18.773Z,101491.34
2023-01-04T05:18:45.390Z,101479.75
2023-01-04T05:21:14.527Z,101489.34
2023-01-04T05:23:45.395Z,101491.19
2023-01-04T05:26:11.990Z,101496.63
2023-01-04T05:28:38.720Z,101492.25
2023-01-04T05:31:05.429Z,101487.19
2023-01-04T05:33:32.699Z,101496.22
2023-01-04T05:36:01.888Z,101495.34
2023-01-04T05:38:29.239Z,101495.47
2023-01-04T05:40:56.610Z,101500.16
2023-01-04T05:43:24.423Z,101491.50
2023-01-04T05:45:53.602Z,101502.50
2023-01-04T05:48:21.463Z,101495.81
2023-01-04T05:50:48.813Z,101514.22
2023-01-04T05:53:17.068Z,101511.16
2023-01-04T05:55:44.389Z,101510.94
2023-01-04T05:58:11.165Z,101507.78
2023-01-04T06:00:37.790Z,101506.00
2023-01-04T06:03:04.504Z,101506.91
2023-01-04T06:05:31.230Z,101510.97
2023-01-04T06:07:57.925Z,101508.38
2023-01-04T06:10:24.601Z,101517.56
2023-01-04T06:12:51.192Z,101508.88
2023-01-04T06:15:17.841Z,101511.56
2023-01-04T06:17:44.526Z,101517.28
2023-01-04T06:20:11.641Z,101520.28
2023-01-04T06:22:38.620Z,101511.31
2023-01-04T06:25:05.560Z,101510.78
2023-01-04T06:27:32.135Z,101514.00
2023-01-04T06:29:58.740Z,101519.59
2023-01-04T06:32:25.382Z,101515.25
2023-01-04T06:34:52.021Z,101520.50
2023-01-04T06:37:18.676Z,101533.31
2023-01-04T06:39:45.322Z,101532.56
2023-01-04T06:42:11.907Z,101529.13
2023-01-04T06:44:38.491Z,101533.63
2023-01-04T06:47:05.153Z,101533.97
2023-01-04T06:49:31.820Z,101538.69
2023-01-04T06:51:58.547Z,101539.25
2023-01-04T06:54:25.176Z,101532.03
2023-01-04T06:56:51.806Z,101533.81
2023-01-04T06:59:18.420Z,101528.13
2023-01-04T07:01:45.189Z,101542.13
2023-01-04T07:04:11.872Z,101541.66
2023-01-04T07:06:38.489Z,101540.47
2023-01-04T07:09:05.153Z,101539.16
2023-01-04T07:11:31.741Z,101537.09
2023-01-04T07:13:58.347Z,101542.31
2023-01-04T07:16:25.143Z,101546.34
2023-01-04T07:18:52.063Z,101544.09
2023-01-04T07:21:18.654Z,101558.88
2023-01-04T07:23:45.240Z,101555.16
2023-01-04T07:26:11.864Z,101567.19
2023-01-04T07:28:38.498Z,101561.56
2023-01-04T07:31:07.286Z,101563.25
2023-01-04T07:33:33.980Z,101566.81
2023-01-04T07:36:07.625Z,101558.75
2023-01-04T07:38:35.189Z,101558.13
2023-01-04T07:41:01.911Z,101546.34
2023-01-04T07:43:28.895Z,101550.31
2023-01-04T07:45:55.795Z,101548.47
2023-01-04T07:48:22.469Z,101553.50
2023-01-04T07:50:49.938Z,101546.47
2023-01-04T07:53:16.576Z,101545.66
2023-01-04T07:55:43.183Z,101549.44
2023-01-04T07:58:09.769Z,101557.78
2023-01-04T08:00:36.355Z,101553.47
2023-01-04T08:03:03.705Z,101556.06
2023-01-04T08:05:34.353Z,101551.84
2023-01-04T08:08:01.360Z,101554.44
2023-01-04T08:10:28.098Z,101558.66
2023-01-04T08:12:54.830Z,101564.56
2023-01-04T08:15:21.456Z,101557.34
2023-01-04T08:17:48.036Z,101557.28
2023-01-04T08:20:14.721Z,101558.31
2023-01-04T08:22:41.316Z,101547.06
2023-01-04T08:25:08.265Z,101542.06
2023-01-04T08:27:35.036Z,101538.63
2023-01-04T08:30:01.726Z,101548.94
2023-01-04T08:32:28.511Z,101544.78
2023-01-04T08:34:55.117Z,101543.81
2023-01-04T08:37:21.724Z,101541.28
2023-01-04T08:39:49.749Z,101554.94
2023-01-04T08:42:22.387Z,101556.25
2023-01-04T08:44:59.195Z,101553.03
2023-01-04T08:47:27.862Z,101550.31
2023-01-04T08:49:54.760Z,101551.00
2023-01-04T08:52:21.424Z,101556.31
2023-01-04T08:54:48.538Z,101557.44
2023-01-04T08:57:18.281Z,101557.72
2023-01-04T08:59:44.978Z,101560.63
2023-01-04T09:02:26.388Z,101559.94
2023-01-04T09:04:53.668Z,101567.13
2023-01-04T09:07:20.306Z,101568.03
2023-01-04T09:09:46.892Z,101556.69
2023-01-04T09:12:13.501Z,101560.03
2023-01-04T09:14:40.135Z,101563.66
2023-01-04T09:17:06.725Z,101562.69
2023-01-04T09:19:33.931Z,101550.16
2023-01-04T09:22:00.740Z,101551.31
2023-01-04T09:24:27.652Z,101549.59
2023-01-04T09:26:54.290Z,101548.66
2023-01-04T09:29:21.088Z,101550.94
2023-01-04T09:31:47.780Z,101542.53
2023-01-04T09:34:16.695Z,101546.47
2023-01-04T09:36:44.758Z,101546.56
2023-01-04T09:39:18.829Z,101543.31
2023-01-04T09:42:02.770Z,101537.06
2023-01-04T09:47:52.575Z,101521.13
2023-01-04T09:50:24.881Z,101505.03
2023-01-04T09:53:00.980Z,101498.91
2023-01-04T09:55:40.720Z,101492.63
2023-01-04T09:58:33.362Z,101489.59
2023-01-04T10:01:44.604Z,101480.59
2023-01-04T10:04:41.330Z,101479.41
2023-01-04T10:07:36.830Z,101478.38
2023-01-04T10:10:05.267Z,101484.50
2023-01-04T10:13:29.956Z,101486.88
2023-01-04T10:16:08.219Z,101468.84
2023-01-04T10:21:36.488Z,101464.34
2023-01-04T10:24:30.350Z,101463.09
2023-01-04T10:27:06.970Z,101459.13
2023-01-04T10:29:39.094Z,101463.84
2023-01-04T10:32:14.023Z,101468.66
2023-01-04T10:34:43.367Z,101459.16
2023-01-04T10:37:20.734Z,101466.94
2023-01-04T10:39:52.219Z,101464.28
2023-01-04T10:42:32.712Z,101452.97
2023-01-04T10:45:06.800Z,101461.84
2023-01-04T10:48:01.440Z,101459.41
2023-01-04T10:50:30.584Z,101458.94
2023-01-04T10:53:21.145Z,101453.28
2023-01-04T10:56:25.990Z,101449.03
2023-01-04T10:58:42.502Z,101432.66
2023-01-04T11:01:17.988Z,101440.28
2023-01-04T11:03:55.850Z,101438.13
2023-01-04T11:06:27.624Z,101431.28
2023-01-04T11:09:01.674Z,101425.06
2023-01-04T11:11:35.278Z,101420.09
2023-01-04T11:14:03.780Z,101415.72
2023-01-04T11:16:30.917Z,101403.34
2023-01-04T11:18:58.506Z,101405.16
2023-01-04T11:21:34.495Z,101398.31
2023-01-04T11:24:31.060Z,101401.88
2023-01-04T11:26:55.555Z,101398.31
2023-01-04T11:29:55.199Z,101397.56
2023-01-04T11:32:34.889Z,101391.44
2023-01-04T11:35:01.755Z,101388.84
2023-01-04T11:37:30.704Z,101373.97
2023-01-04T11:40:18.447Z,101372.22
2023-01-04T11:42:48.075Z,101369.63
2023-01-04T11:45:28.443Z,101372.25
2023-01-04T11:47:58.560Z,101370.53
2023-01-04T11:50:34.282Z,101360.00
2023-01-04T11:53:00.924Z,101363.50
2023-01-04T11:55:46.488Z,101359.13
2023-01-04T11:58:14.781Z,101352.13
2023-01-04T12:00:56.730Z,101345.06
2023-01-04T12:03:36.297Z,101346.81
2023-01-04T12:06:03.017Z,101338.94
2023-01-04T12:08:32.763Z,101335.41
2023-01-04T12:11:02.773Z,101338.03
2023-01-04T12:13:31.611Z,101338.81
2023-01-04T12:16:27.629Z,101330.06
2023-01-04T12:18:54.474Z,101335.25
2023-01-04T12:21:23.809Z,101336.22
2023-01-04T12:23:52.243Z,101329.91
2023-01-04T12:26:20.362Z,101330.78
2023-01-04T12:28:53.083Z,101325.69
2023-01-04T12:31:20.450Z,101327.50
2023-01-04T12:33:52.770Z,101317.94
2023-01-04T12:36:21.987Z,101308.22
2023-01-04T12:38:54.712Z,101308.84
2023-01-04T12:41:33.498Z,101300.91
2023-01-04T12:44:03.662Z,101303.63
2023-01-04T12:46:30.300Z,101301.91
2023-01-04T12:48:57.134Z,101295.94
2023-01-04T12:51:33.811Z,101299.41
2023-01-04T12:54:05.731Z,101288.72
2023-01-04T12:57:10.637Z,101297.41
2023-01-04T13:00:00.153Z,101289.38
2023-01-04T13:02:54.409Z,101287.53
2023-01-04T13:08:12.740Z,101275.16
2023-01-04T13:10:54.126Z,101280.47
2023-01-04T13:13:42.830Z,101285.03
2023-01-04T13:16:51.732Z,101274.66
2023-01-04T13:19:24.276Z,101268.59
2023-01-04T13:21:52.868Z,101265.91
2023-01-04T13:24:34.647Z,101264.34
2023-01-04T13:27:27.697Z,101265.22
2023-01-04T13:29:54.672Z,101274.91
2023-01-04T13:32:30.009Z,101267.00
2023-01-04T13:35:03.652Z,101264.44
2023-01-04T13:37:42.789Z,101269.72
2023-01-04T13:40:30.492Z,101270.66
2023-01-04T13:43:03.143Z,101267.25
2023-01-04T13:45:48.640Z,101265.53
2023-01-04T13:48:19.378Z,101270.81
2023-01-04T13:51:18.798Z,101274.31
2023-01-04T13:53:53.651Z,101267.31
2023-01-04T13:56:26.702Z,101263.81
2023-01-04T13:58:53.697Z,101260.34
2023-01-04T14:01:24.171Z,101256.81
2023-01-04T14:04:04.157Z,101248.06
2023-01-04T14:06:42.201Z,101245.44
2023-01-04T14:09:11.839Z,101243.72
2023-01-04T14:11:53.562Z,101248.97
2023-01-04T14:14:29.198Z,101250.69
2023-01-04T14:17:27.883Z,101242.81
2023-01-04T14:19:58.644Z,101244.53
2023-01-04T14:22:35.698Z,101245.44
2023-01-04T14:25:31.034Z,101248.94
2023-01-04T14:28:19.797Z,101248.78
2023-01-04T14:30:49.214Z,101246.97
2023-01-04T14:33:19.521Z,101240.06
2023-01-04T14:35:49.001Z,101243.56
2023-01-04T14:38:19.189Z,101231.31
2023-01-04T14:40:46.908Z,101221.59
2023-01-04T14:43:45.879Z,101224.19
2023-01-04T14:46:12.480Z,101224.28
2023-01-04T14:48:39.138Z,101226.78
2023-01-04T14:51:06.442Z,101224.06
2023-01-04T14:53:33.155Z,101220.59
2023-01-04T14:55:59.863Z,101217.72
2023-01-04T14:58:26.449Z,101214.50
2023-01-04T15:00:53.088Z,101214.31
2023-01-04T15:03:19.784Z,101218.47
2023-01-04T15:05:48.553Z,101209.59
2023-01-04T15:08:15.142Z,101209.03
2023-01-04T15:10:41.803Z,101208.81
2023-01-04T15:13:08.416Z,101208.72
2023-01-04T15:15:35.954Z,101215.66
2023-01-04T15:18:02.674Z,101204.63
2023-01-04T15:20:29.295Z,101203.66
2023-01-04T15:22:55.915Z,101204.38
2023-01-04T15:25:22.692Z,101207.28
2023-01-04T15:27:50.009Z,101212.56
2023-01-04T15:30:16.689Z,101209.22
2023-01-04T15:32:43.331Z,101201.19
2023-01-04T15:35:10.255Z,101194.75
2023-01-04T15:37:38.255Z,101200.22
2023-01-04T15:40:05.363Z,101202.69
2023-01-04T15:42:31.957Z,101200.75
2023-01-04T15:44:58.603Z,101196.38
2023-01-04T15:47:25.199Z,101192.91
2023-01-04T15:49:51.911Z,101186.09
2023-01-04T15:52:18.498Z,101175.53
2023-01-04T15:54:45.167Z,101180.78
2023-01-04T15:57:11.781Z,101175.16
2023-01-04T15:59:38.415Z,101173.53
2023-01-04T16:02:05.260Z,101169.19
2023-01-04T16:04:32.050Z,101172.59
2023-01-04T16:06:58.869Z,101174.28
2023-01-04T16:09:25.513Z,101170.97
2023-01-04T16:11:52.183Z,101168.28
2023-01-04T16:14:18.956Z,101171.44
2023-01-04T16:16:45.623Z,101163.28
2023-01-04T16:19:12.263Z,101150.59
2023-01-04T16:21:38.964Z,101151.38
2023-01-04T16:24:20.825Z,101148.41
2023-01-04T16:26:52.556Z,101142.09
2023-01-04T16:29:19.169Z,101141.13
2023-01-04T16:31:45.890Z,101139.41
2023-01-04T16:34:13.795Z,101140.09
2023-01-04T16:36:40.835Z,101131.75
2023-01-04T16:39:08.078Z,101131.78
2023-01-04T16:41:34.868Z,101128.16
2023-01-04T16:44:04.605Z,101127.91
2023-01-04T16:46:34.009Z,101129.03
2023-01-04T16:49:11.233Z,101126.97
2023-01-04T16:51:41.136Z,101122.91
2023-01-04T16:54:10.866Z,101113.00
2023-01-04T16:56:38.959Z,101116.19
2023-01-04T16:59:05.939Z,101118.78
2023-01-04T17:01:35.007Z,101108.84
2023-01-04T17:04:04.329Z,101112.28
2023-01-04T17:06:33.457Z,101102.81
2023-01-04T17:09:01.429Z,101105.25
2023-01-04T17:14:16.993Z,101099.25
2023-01-04T17:16:43.599Z,101089.75
2023-01-04T17:19:10.188Z,101088.00
2023-01-04T17:21:36.808Z,101085.38
2023-01-04T17:24:04.019Z,101081.56
2023-01-04T17:26:32.611Z,101081.69
2023-01-04T17:29:00.988Z,101080.72
2023-01-04T17:31:45.945Z,101081.06
2023-01-04T17:34:20.139Z,101081.66
2023-01-04T17:36:49.264Z,101068.25
2023-01-04T17:39:15.858Z,101073.22
2023-01-04T17:41:42.481Z,101056.09
2023-01-04T17:44:10.103Z,101065.78
2023-01-04T17:46:37.396Z,101059.72
2023-01-04T17:49:30.810Z,101057.81
2023-01-04T17:51:55.895Z,101061.28
2023-01-04T17:54:22.569Z,101055.13
2023-01-04T17:56:49.150Z,101046.91
2023-01-04T17:59:15.747Z,101050.59
2023-01-04T18:01:42.422Z,101045.69
2023-01-04T18:04:09.200Z,101043.03
2023-01-04T18:06:37.258Z,101044.78
2023-01-04T18:09:05.802Z,101060.97
2023-01-04T18:11:33.886Z,101046.16
2023-01-04T18:14:02.906Z,101046.16
2023-01-04T18:16:32.761Z,101039.34
2023-01-04T18:19:00.877Z,101033.84
2023-01-04T18:21:30.187Z,101032.19
2023-01-04T18:29:36.627Z,101020.06
2023-01-04T18:32:03.751Z,101033.00
2023-01-04T18:34:30.422Z,101031.16
2023-01-04T18:36:57.026Z,101029.44
2023-01-04T18:39:23.640Z,101024.56
2023-01-04T18:41:50.259Z,101024.56
2023-01-04T18:44:33.907Z,101006.06
2023-01-04T18:47:02.742Z,101007.50
2023-01-04T18:49:29.582Z,101009.00
2023-01-04T18:51:56.180Z,101004.72
2023-01-04T18:54:22.854Z,101005.81
2023-01-04T18:56:49.533Z,100992.19
2023-01-04T18:59:16.214Z,100995.00
2023-01-04T19:01:42.964Z,100988.59
2023-01-04T19:04:09.682Z,100990.66
2023-01-04T19:06:36.309Z,100980.47
2023-01-04T19:09:06.516Z,100981.72
2023-01-04T19:11:33.801Z,100978.63
2023-01-04T19:14:00.466Z,100971.59
2023-01-04T19:16:27.687Z,100969.50
2023-01-04T19:18:54.286Z,100963.59
2023-01-04T19:21:20.877Z,100955.44
2023-01-04T19:23:47.539Z,100948.97
2023-01-04T19:26:14.156Z,100938.75
2023-01-04T19:28:40.802Z,100938.94
2023-01-04T19:31:09.238Z,100930.72
2023-01-04T19:33:36.776Z,100926.09
2023-01-04T19:36:09.888Z,100924.22
2023-01-04T19:38:37.135Z,100909.09
2023-01-04T19:41:04.322Z,100906.50
2023-01-04T19:43:31.039Z,100892.34
2023-01-04T19:45:57.740Z,100891.09
2023-01-04T19:48:24.419Z,100897.94
2023-01-04T19:51:11.657Z,100904.22
2023-01-04T19:53:39.327Z,100914.75
2023-01-04T19:56:06.659Z,100900.34
2023-01-04T19:58:33.247Z,100897.41
2023-01-04T20:00:59.984Z,100898.03
2023-01-04T20:03:26.698Z,100889.50
2023-01-04T20:05:54.050Z,100882.25
2023-01-04T20:08:21.506Z,100869.88
2023-01-04T20:10:55.164Z,100870.84
2023-01-04T20:13:21.895Z,100868.66
2023-01-04T20:15:48.491Z,100868.03
2023-01-04T20:18:15.117Z,100856.00
2023-01-04T20:20:43.174Z,100857.72
2023-01-04T20:23:10.414Z,100860.00
2023-01-04T20:25:41.819Z,100861.09
2023-01-04T20:28:08.430Z,100861.88
2023-01-04T20:30:35.204Z,100863.03
2023-01-04T20:33:01.921Z,100877.03
2023-01-04T20:35:28.735Z,100880.31
2023-01-04T20:37:55.604Z,100874.72
2023-01-04T20:40:24.061Z,100866.03
2023-01-04T20:42:50.677Z,100853.72
2023-01-04T20:45:17.376Z,100855.63
2023-01-04T20:47:44.091Z,100855.31
2023-01-04T20:50:10.771Z,100847.50
2023-01-04T20:52:37.374Z,100839.03
2023-01-04T20:55:04.273Z,100835.84
2023-01-04T20:57:31.604Z,100830.81
2023-01-04T20:59:58.206Z,100827.47
2023-01-04T21:02:25.038Z,100831.28
2023-01-04T21:04:51.817Z,100824.38
2023-01-04T21:07:18.414Z,100810.63
2023-01-04T21:09:45.018Z,100815.97
2023-01-04T21:12:11.635Z,100816.16
2023-01-04T21:14:38.323Z,100804.78
2023-01-04T21:17:05.404Z,100805.47
2023-01-04T21:19:32.019Z,100802.00
2023-01-04T21:21:58.627Z,100789.16
2023-01-04T21:24:25.213Z,100785.09
2023-01-04T21:26:51.813Z,100777.28
2023-01-04T21:29:18.445Z,100783.78
2023-01-04T21:31:45.040Z,100770.88
2023-01-04T21:34:15.081Z,100760.06
2023-01-04T21:36:43.723Z,100756.75
2023-01-04T21:39:10.344Z,100769.16
2023-01-04T21:41:36.928Z,100768.47
2023-01-04T21:44:03.608Z,100759.63
2023-01-04T21:46:30.367Z,100759.72
2023-01-04T21:48:58.970Z,100750.34
2023-01-04T21:51:25.580Z,100748.56
2023-01-04T21:53:52.413Z,100741.53
2023-01-04T21:56:22.917Z,100737.34
2023-01-04T21:58:49.876Z,100727.69
2023-01-04T22:01:31.172Z,100722.56
2023-01-04T22:04:01.318Z,100713.00
2023-01-04T22:06:28.108Z,100708.66
2023-01-04T22:08:54.735Z,100698.16
2023-01-04T22:11:21.488Z,100690.19
2023-01-04T22:13:48.145Z,100690.28
2023-01-04T22:16:16.205Z,100689.34
2023-01-04T22:18:47.575Z,100688.63
2023-01-04T22:21:15.741Z,100685.84
2023-01-04T22:23:42.377Z,100680.78
2023-01-04T22:26:09.776Z,100683.41
2023-01-04T22:28:37.261Z,100680.75
2023-01-04T22:31:10.681Z,100669.41
2023-01-04T22:33:38.146Z,100668.31
2023-01-04T22:36:15.451Z,100663.06
2023-01-04T22:38:45.954Z,100670.19
2023-01-04T22:41:14.907Z,100670.34
2023-01-04T22:43:42.426Z,100668.66
2023-01-04T22:46:14.390Z,100653.78
2023-01-04T22:48:41.149Z,100653.66
2023-01-04T22:51:09.849Z,100645.75
2023-01-04T22:53:37.067Z,100652.94
2023-01-04T22:56:18.867Z,100646.00
2023-01-04T22:58:52.067Z,100653.75
2023-01-04T23:01:20.629Z,100643.13
2023-01-04T23:03:47.415Z,100642.31
2023-01-04T23:06:14.372Z,100654.44
2023-01-04T23:08:41.258Z,100652.59
2023-01-04T23:11:16.448Z,100641.38
2023-01-04T23:13:43.326Z,100640.66
2023-01-04T23:16:13.564Z,100638.72
2023-01-04T23:18:40.981Z,100635.44
2023-01-04T23:21:07.875Z,100633.78
2023-01-04T23:23:34.806Z,100636.44
2023-01-04T23:26:10.939Z,100639.91
2023-01-04T23:28:37.546Z,100643.34
2023-01-04T23:31:05.910Z,100616.25
2023-01-04T23:33:36.406Z,100608.56
2023-01-04T23:36:10.547Z,100614.63
2023-01-04T23:38:37.370Z,100626.84
2023-01-04T23:41:04.996Z,100635.59
2023-01-04T23:43:31.870Z,100645.13
2023-01-04T23:45:58.461Z,100642.44
2023-01-04T23:48:25.069Z,100650.16
2023-01-04T23:50:57.746Z,100665.13
2023-01-04T23:53:24.779Z,100690.41
2023-01-04T23:56:03.280Z,100677.88
2023-01-04T23:58:30.410Z,100657.72
